createdAt,value
2019-04-25T00:02:27.796Z,100244.14
2019-04-25T00:04:58.688Z,100259.08
2019-04-25T00:07:28.141Z,100254.96
2019-04-25T00:09:57.985Z,100249.41
2019-04-25T00:12:27.432Z,100245.15
2019-04-25T00:14:58.469Z,100247.92
2019-04-25T00:17:31.379Z,100243.56
2019-04-25T00:20:02.542Z,100246.14
2019-04-25T00:22:39.202Z,100245.52
2019-04-25T00:25:27.792Z,100242.30
2019-04-25T00:27:57.518Z,100236.67
2019-04-25T00:30:29.091Z,100236.67
2019-04-25T00:32:58.451Z,100237.12
2019-04-25T00:35:28.116Z,100241.06
2019-04-25T00:37:57.776Z,100248.05
2019-04-25T00:40:28.564Z,100247.91
2019-04-25T00:43:01.954Z,100243.42
2019-04-25T00:45:32.302Z,100239.77
2019-04-25T00:48:03.976Z,100229.52
2019-04-25T00:50:32.926Z,100227.53
2019-04-25T00:53:02.448Z,100204.97
2019-04-25T00:55:32.769Z,100193.95
2019-04-25T00:58:14.327Z,100204.17
2019-04-25T01:00:49.118Z,100211.41
2019-04-25T01:03:21.490Z,100211.36
2019-04-25T01:05:53.287Z,100205.48
2019-04-25T01:08:22.531Z,100202.86
2019-04-25T01:10:54.216Z,100216.65
2019-04-25T01:13:23.545Z,100217.80
2019-04-25T01:15:53.751Z,100219.22
2019-04-25T01:18:25.272Z,100229.83
2019-04-25T01:20:55.473Z,100239.16
2019-04-25T01:23:25.074Z,100231.50
2019-04-25T01:25:56.260Z,100218.64
2019-04-25T01:28:26.716Z,100231.88
2019-04-25T01:30:56.382Z,100221.44
2019-04-25T01:33:27.312Z,100237.22
2019-04-25T01:36:14.298Z,100242.22
2019-04-25T01:38:45.321Z,100242.58
2019-04-25T01:41:25.337Z,100251.50
2019-04-25T01:43:59.409Z,100255.58
2019-04-25T01:46:29.036Z,100247.52
2019-04-25T01:48:59.696Z,100256.27
2019-04-25T01:51:30.530Z,100247.97
2019-04-25T01:54:00.208Z,100257.04
2019-04-25T01:56:29.575Z,100254.34
2019-04-25T01:59:00.344Z,100244.69
2019-04-25T02:01:31.457Z,100240.91
2019-04-25T02:04:00.815Z,100239.70
2019-04-25T02:06:33.466Z,100228.00
2019-04-25T02:09:04.167Z,100215.75
2019-04-25T02:11:56.824Z,100204.31
2019-04-25T02:14:27.408Z,100196.33
2019-04-25T02:16:57.558Z,100191.15
2019-04-25T02:19:27.651Z,100205.25
2019-04-25T02:21:57.857Z,100208.94
2019-04-25T02:24:27.498Z,100206.90
2019-04-25T02:26:59.548Z,100210.69
2019-04-25T02:29:29.197Z,100212.70
2019-04-25T02:32:06.043Z,100199.00
2019-04-25T02:34:34.670Z,100209.54
2019-04-25T02:37:09.059Z,100213.66
2019-04-25T02:39:37.447Z,100211.84
2019-04-25T02:42:08.638Z,100215.27
2019-04-25T02:44:40.140Z,100225.42
2019-04-25T02:47:11.315Z,100225.17
2019-04-25T02:49:55.909Z,100238.58
2019-04-25T02:52:39.950Z,100245.72
2019-04-25T02:55:11.082Z,100259.16
2019-04-25T02:57:40.748Z,100271.20
2019-04-25T03:00:14.950Z,100267.92
2019-04-25T03:02:47.938Z,100277.64
2019-04-25T03:05:18.747Z,100281.53
2019-04-25T03:07:49.696Z,100275.05
2019-04-25T03:10:19.170Z,100271.77
2019-04-25T03:12:48.645Z,100277.80
2019-04-25T03:15:19.897Z,100284.40
2019-04-25T03:17:51.138Z,100279.23
2019-04-25T03:20:38.283Z,100284.63
2019-04-25T03:23:16.402Z,100290.29
2019-04-25T03:25:45.755Z,100290.40
2019-04-25T03:28:15.730Z,100291.64
2019-04-25T03:30:45.384Z,100285.13
2019-04-25T03:33:19.465Z,100280.33
2019-04-25T03:35:47.610Z,100282.05
2019-04-25T03:38:16.969Z,100283.02
2019-04-25T03:40:46.638Z,100279.09
2019-04-25T03:43:15.996Z,100270.56
2019-04-25T03:45:45.889Z,100268.77
2019-04-25T03:48:16.642Z,100270.51
2019-04-25T03:50:47.625Z,100276.76
2019-04-25T03:53:16.980Z,100294.17
2019-04-25T03:55:48.351Z,100293.36
2019-04-25T03:58:17.739Z,100293.61
2019-04-25T04:00:50.188Z,100298.23
2019-04-25T04:03:19.569Z,100292.23
2019-04-25T04:05:49.454Z,100297.73
2019-04-25T04:08:19.294Z,100301.06
2019-04-25T04:10:50.321Z,100308.03
2019-04-25T04:13:24.240Z,100311.45
2019-04-25T04:15:55.768Z,100303.48
2019-04-25T04:18:29.228Z,100300.79
2019-04-25T04:21:17.449Z,100301.66
2019-04-25T04:23:57.193Z,100302.87
2019-04-25T04:26:27.647Z,100296.50
2019-04-25T04:28:57.023Z,100300.41
2019-04-25T04:31:26.697Z,100301.38
2019-04-25T04:33:56.826Z,100314.38
2019-04-25T04:36:26.490Z,100307.13
2019-04-25T04:38:57.611Z,100309.46
2019-04-25T04:41:27.443Z,100309.59
2019-04-25T04:43:56.920Z,100312.68
2019-04-25T04:46:26.614Z,100307.66
2019-04-25T04:48:56.860Z,100316.70
2019-04-25T04:51:26.233Z,100323.89
2019-04-25T04:53:55.965Z,100327.43
2019-04-25T04:56:25.801Z,100335.59
2019-04-25T04:58:56.745Z,100345.02
2019-04-25T05:01:27.756Z,100346.14
2019-04-25T05:04:10.876Z,100349.94
2019-04-25T05:06:48.849Z,100357.27
2019-04-25T05:09:19.867Z,100362.60
2019-04-25T05:11:50.900Z,100365.27
2019-04-25T05:14:20.952Z,100369.73
2019-04-25T05:16:50.312Z,100366.50
2019-04-25T05:19:19.961Z,100365.02
2019-04-25T05:21:50.850Z,100364.95
2019-04-25T05:24:21.136Z,100364.16
2019-04-25T05:26:50.731Z,100374.52
2019-04-25T05:29:22.489Z,100375.44
2019-04-25T05:31:54.119Z,100378.02
2019-04-25T05:34:25.941Z,100380.91
2019-04-25T05:36:56.975Z,100380.09
2019-04-25T05:39:26.642Z,100379.07
2019-04-25T05:42:16.286Z,100373.98
2019-04-25T05:44:47.674Z,100375.36
2019-04-25T05:47:20.465Z,100379.73
2019-04-25T05:49:50.598Z,100389.70
2019-04-25T05:52:20.707Z,100386.91
2019-04-25T05:54:50.066Z,100387.02
2019-04-25T05:57:19.752Z,100385.40
2019-04-25T05:59:49.098Z,100388.34
2019-04-25T06:02:24.488Z,100383.50
2019-04-25T06:04:55.145Z,100390.07
2019-04-25T06:07:26.684Z,100380.80
2019-04-25T06:09:58.588Z,100398.44
2019-04-25T06:12:35.550Z,100397.56
2019-04-25T06:15:06.350Z,100383.92
2019-04-25T06:17:40.407Z,100380.12
2019-04-25T06:20:13.593Z,100391.02
2019-04-25T06:23:03.266Z,100384.94
2019-04-25T06:25:38.943Z,100381.45
2019-04-25T06:28:05.878Z,100385.17
2019-04-25T06:30:35.616Z,100392.63
2019-04-25T06:33:05.455Z,100393.65
2019-04-25T06:35:35.872Z,100396.94
2019-04-25T06:38:06.253Z,100396.89
2019-04-25T06:40:35.904Z,100392.52
2019-04-25T06:43:06.469Z,100393.95
2019-04-25T06:45:40.150Z,100397.52
2019-04-25T06:48:15.179Z,100400.48
2019-04-25T06:50:46.128Z,100401.48
2019-04-25T06:53:15.786Z,100411.64
2019-04-25T06:55:45.167Z,100403.27
2019-04-25T06:58:14.738Z,100415.08
2019-04-25T07:00:57.174Z,100428.92
2019-04-25T07:03:15.724Z,100446.54
2019-04-25T07:05:45.137Z,100431.09
2019-04-25T07:08:14.639Z,100435.89
2019-04-25T07:10:50.470Z,100430.41
2019-04-25T07:13:20.701Z,100428.25
2019-04-25T07:15:51.385Z,100433.16
2019-04-25T07:18:20.943Z,100426.24
2019-04-25T07:20:50.312Z,100428.51
2019-04-25T07:23:21.030Z,100425.61
2019-04-25T07:25:53.825Z,100416.86
2019-04-25T07:28:37.998Z,100397.53
2019-04-25T07:31:25.137Z,100409.27
2019-04-25T07:34:00.148Z,100409.13
2019-04-25T07:36:29.525Z,100404.89
2019-04-25T07:39:08.201Z,100416.27
2019-04-25T07:41:34.301Z,100416.81
2019-04-25T07:44:07.076Z,100421.78
2019-04-25T07:46:39.508Z,100437.10
2019-04-25T07:49:10.695Z,100446.45
2019-04-25T07:51:41.092Z,100440.65
2019-04-25T07:54:10.452Z,100432.81
2019-04-25T07:56:41.762Z,100435.17
2019-04-25T07:59:14.866Z,100431.95
2019-04-25T08:01:45.569Z,100431.97
2019-04-25T08:04:20.519Z,100430.81
2019-04-25T08:06:55.287Z,100424.86
2019-04-25T08:09:24.317Z,100425.23
2019-04-25T08:11:55.289Z,100423.00
2019-04-25T08:14:34.192Z,100426.79
2019-04-25T08:17:08.726Z,100418.77
2019-04-25T08:19:39.363Z,100430.14
2019-04-25T08:22:10.694Z,100429.08
2019-04-25T08:24:40.985Z,100430.55
2019-04-25T08:27:13.213Z,100428.62
2019-04-25T08:29:44.857Z,100431.99
2019-04-25T08:32:14.339Z,100418.05
2019-04-25T08:34:45.659Z,100415.51
2019-04-25T08:37:19.111Z,100410.77
2019-04-25T08:39:49.333Z,100437.36
2019-04-25T08:42:20.344Z,100444.20
2019-04-25T08:44:49.698Z,100458.72
2019-04-25T08:47:19.126Z,100454.81
2019-04-25T08:49:56.218Z,100469.83
2019-04-25T08:52:25.597Z,100466.51
2019-04-25T08:55:04.218Z,100468.83
2019-04-25T08:57:51.673Z,100472.59
2019-04-25T09:00:44.813Z,100463.16
2019-04-25T09:03:15.919Z,100467.35
2019-04-25T09:05:48.249Z,100460.41
2019-04-25T09:08:17.734Z,100457.01
2019-04-25T09:10:47.302Z,100452.72
2019-04-25T09:13:17.664Z,100444.69
2019-04-25T09:15:47.285Z,100444.55
2019-04-25T09:18:16.682Z,100432.67
2019-04-25T09:20:46.744Z,100443.84
2019-04-25T09:23:16.296Z,100449.95
2019-04-25T09:25:49.201Z,100453.84
2019-04-25T09:28:19.092Z,100454.64
2019-04-25T09:30:48.733Z,100457.45
2019-04-25T09:33:20.498Z,100448.09
2019-04-25T09:35:50.843Z,100446.81
2019-04-25T09:38:20.431Z,100453.03
2019-04-25T09:40:49.875Z,100445.59
2019-04-25T09:43:21.300Z,100442.62
2019-04-25T09:46:00.758Z,100451.20
2019-04-25T09:48:34.340Z,100434.42
2019-04-25T09:51:05.990Z,100440.48
2019-04-25T09:53:43.241Z,100444.38
2019-04-25T09:56:16.623Z,100455.35
2019-04-25T09:58:53.838Z,100444.53
2019-04-25T10:01:24.727Z,100461.08
2019-04-25T10:03:54.483Z,100449.20
2019-04-25T10:06:25.411Z,100467.06
2019-04-25T10:08:56.548Z,100455.45
2019-04-25T10:11:26.202Z,100454.16
2019-04-25T10:14:14.759Z,100462.22
2019-04-25T10:16:45.538Z,100469.75
2019-04-25T10:19:18.323Z,100461.63
2019-04-25T10:21:53.421Z,100472.86
2019-04-25T10:24:24.052Z,100455.07
2019-04-25T10:26:54.720Z,100458.88
2019-04-25T10:29:24.479Z,100451.91
2019-04-25T10:31:55.528Z,100446.94
2019-04-25T10:34:26.820Z,100461.35
2019-04-25T10:36:56.723Z,100455.23
2019-04-25T10:39:26.950Z,100450.14
2019-04-25T10:41:56.827Z,100449.70
2019-04-25T10:44:27.006Z,100455.27
2019-04-25T10:46:56.732Z,100458.72
2019-04-25T10:49:26.648Z,100449.14
2019-04-25T10:51:56.317Z,100448.33
2019-04-25T10:54:25.730Z,100445.45
2019-04-25T10:56:55.817Z,100446.70
2019-04-25T10:59:25.919Z,100447.00
2019-04-25T11:01:55.823Z,100447.37
2019-04-25T11:04:29.596Z,100432.41
2019-04-25T11:06:58.994Z,100447.10
2019-04-25T11:09:28.806Z,100431.91
2019-04-25T11:11:58.770Z,100445.84
2019-04-25T11:14:34.241Z,100448.30
2019-04-25T11:17:03.948Z,100437.92
2019-04-25T11:19:35.826Z,100442.16
2019-04-25T11:22:06.706Z,100451.42
2019-04-25T11:24:36.347Z,100436.66
2019-04-25T11:27:05.983Z,100430.67
2019-04-25T11:29:35.661Z,100432.16
2019-04-25T11:32:06.338Z,100423.08
2019-04-25T11:34:35.714Z,100431.23
2019-04-25T11:37:05.862Z,100427.73
2019-04-25T11:39:50.424Z,100427.73
2019-04-25T11:42:21.147Z,100433.11
2019-04-25T11:44:54.140Z,100417.69
2019-04-25T11:47:24.516Z,100411.34
2019-04-25T11:49:54.688Z,100416.59
2019-04-25T11:52:28.279Z,100421.64
2019-04-25T11:54:56.660Z,100422.11
2019-04-25T11:57:26.028Z,100418.58
2019-04-25T11:59:55.969Z,100421.99
2019-04-25T12:02:26.688Z,100414.27
2019-04-25T12:04:56.061Z,100412.37
2019-04-25T12:07:28.237Z,100414.88
2019-04-25T12:09:59.152Z,100401.68
2019-04-25T12:12:29.065Z,100393.91
2019-04-25T12:14:58.975Z,100400.53
2019-04-25T12:17:28.605Z,100396.40
2019-04-25T12:19:58.497Z,100396.42
2019-04-25T12:22:27.877Z,100381.19
2019-04-25T12:24:57.060Z,100378.42
2019-04-25T12:27:26.781Z,100398.13
2019-04-25T12:29:56.173Z,100385.52
2019-04-25T12:32:25.899Z,100380.13
2019-04-25T12:34:56.156Z,100383.63
2019-04-25T12:37:25.726Z,100376.62
2019-04-25T12:39:56.118Z,100350.41
2019-04-25T12:42:25.704Z,100350.41
2019-04-25T12:45:14.216Z,100356.55
2019-04-25T12:47:46.402Z,100352.80
2019-04-25T12:50:18.633Z,100360.95
2019-04-25T12:52:48.707Z,100365.41
2019-04-25T12:55:18.161Z,100360.73
2019-04-25T12:57:48.216Z,100366.47
2019-04-25T13:00:20.739Z,100367.78
2019-04-25T13:02:50.338Z,100369.25
2019-04-25T13:05:19.975Z,100371.84
2019-04-25T13:07:49.807Z,100366.52
2019-04-25T13:10:19.187Z,100374.38
2019-04-25T13:12:48.732Z,100355.66
2019-04-25T13:15:18.468Z,100355.99
2019-04-25T13:17:48.842Z,100357.59
2019-04-25T13:20:18.226Z,100350.60
2019-04-25T13:22:47.851Z,100366.47
2019-04-25T13:25:19.361Z,100352.78
2019-04-25T13:27:52.208Z,100361.61
2019-04-25T13:30:29.835Z,100349.48
2019-04-25T13:33:06.618Z,100352.98
2019-04-25T13:35:37.727Z,100352.98
2019-04-25T13:38:07.373Z,100357.34
2019-04-25T13:40:37.159Z,100356.55
2019-04-25T13:43:07.735Z,100354.94
2019-04-25T13:45:38.717Z,100351.25
2019-04-25T13:48:09.100Z,100360.89
2019-04-25T13:50:38.802Z,100350.27
2019-04-25T13:53:09.023Z,100347.91
2019-04-25T13:55:40.466Z,100349.67
2019-04-25T13:58:11.915Z,100344.73
2019-04-25T14:00:46.137Z,100348.45
2019-04-25T14:03:15.800Z,100339.88
2019-04-25T14:05:45.175Z,100335.05
2019-04-25T14:08:15.858Z,100330.59
2019-04-25T14:10:47.434Z,100329.24
2019-04-25T14:13:17.036Z,100327.91
2019-04-25T14:15:53.544Z,100326.41
2019-04-25T14:18:27.058Z,100318.47
2019-04-25T14:20:58.323Z,100305.19
2019-04-25T14:23:27.894Z,100315.64
2019-04-25T14:25:57.554Z,100308.50
2019-04-25T14:28:29.428Z,100308.98
2019-04-25T14:30:58.511Z,100295.30
2019-04-25T14:33:30.667Z,100295.50
2019-04-25T14:36:00.427Z,100299.05
2019-04-25T14:38:30.032Z,100284.05
2019-04-25T14:41:00.290Z,100283.19
2019-04-25T14:43:31.115Z,100285.16
2019-04-25T14:46:00.894Z,100279.84
2019-04-25T14:48:31.912Z,100285.03
2019-04-25T14:51:01.275Z,100289.21
2019-04-25T14:53:33.604Z,100288.86
2019-04-25T14:56:04.321Z,100284.59
2019-04-25T14:58:35.893Z,100275.02
2019-04-25T15:01:06.731Z,100284.44
2019-04-25T15:03:36.095Z,100283.84
2019-04-25T15:06:05.667Z,100288.15
2019-04-25T15:08:35.029Z,100283.55
2019-04-25T15:11:04.747Z,100282.00
2019-04-25T15:13:35.722Z,100287.02
2019-04-25T15:16:05.402Z,100276.01
2019-04-25T15:18:46.003Z,100279.08
2019-04-25T15:21:07.526Z,100271.59
2019-04-25T15:23:37.063Z,100271.56
2019-04-25T15:26:07.663Z,100260.53
2019-04-25T15:28:38.878Z,100258.36
2019-04-25T15:31:08.373Z,100263.61
2019-04-25T15:33:38.032Z,100253.16
2019-04-25T15:36:17.941Z,100248.59
2019-04-25T15:38:51.939Z,100248.59
2019-04-25T15:41:35.048Z,100251.35
2019-04-25T15:44:21.910Z,100239.64
2019-04-25T15:46:52.937Z,100233.72
2019-04-25T15:49:24.500Z,100230.08
2019-04-25T15:51:55.704Z,100231.88
2019-04-25T15:54:25.325Z,100229.78
2019-04-25T15:56:58.021Z,100232.34
2019-04-25T15:59:27.466Z,100237.51
2019-04-25T16:02:07.958Z,100223.84
2019-04-25T16:04:30.652Z,100223.84
2019-04-25T16:07:00.537Z,100225.97
2019-04-25T16:09:31.911Z,100212.52
2019-04-25T16:12:02.434Z,100218.25
2019-04-25T16:14:32.122Z,100215.52
2019-04-25T16:17:01.858Z,100217.77
2019-04-25T16:19:31.612Z,100220.28
2019-04-25T16:22:02.285Z,100215.52
2019-04-25T16:24:32.271Z,100216.83
2019-04-25T16:27:02.041Z,100213.10
2019-04-25T16:29:33.254Z,100212.92
2019-04-25T16:32:04.576Z,100200.53
2019-04-25T16:34:35.507Z,100198.94
2019-04-25T16:37:05.165Z,100192.87
2019-04-25T16:39:36.458Z,100193.25
2019-04-25T16:42:07.047Z,100183.80
2019-04-25T16:44:36.421Z,100191.50
2019-04-25T16:47:08.819Z,100189.53
2019-04-25T16:49:40.174Z,100190.13
2019-04-25T16:52:10.648Z,100177.74
2019-04-25T16:54:40.750Z,100179.44
2019-04-25T16:57:10.422Z,100183.48
2019-04-25T16:59:39.788Z,100187.29
2019-04-25T17:02:09.687Z,100176.19
2019-04-25T17:04:39.688Z,100179.78
2019-04-25T17:07:11.688Z,100182.55
2019-04-25T17:09:42.899Z,100179.13
2019-04-25T17:12:12.735Z,100179.68
2019-04-25T17:14:45.324Z,100176.84
2019-04-25T17:17:32.341Z,100179.40
2019-04-25T17:20:09.883Z,100171.16
2019-04-25T17:22:39.759Z,100167.13
2019-04-25T17:25:10.484Z,100159.81
2019-04-25T17:27:41.219Z,100158.55
2019-04-25T17:30:12.819Z,100160.26
2019-04-25T17:33:00.319Z,100165.33
2019-04-25T17:35:43.541Z,100169.84
2019-04-25T17:38:14.553Z,100176.29
2019-04-25T17:40:44.060Z,100171.39
2019-04-25T17:43:13.437Z,100180.23
2019-04-25T17:45:43.790Z,100173.92
2019-04-25T17:48:13.708Z,100172.34
2019-04-25T17:50:44.702Z,100172.31
2019-04-25T17:53:14.617Z,100176.62
2019-04-25T17:55:44.559Z,100174.81
2019-04-25T17:58:15.417Z,100179.26
2019-04-25T18:00:45.715Z,100176.08
2019-04-25T18:03:15.575Z,100171.86
2019-04-25T18:05:46.712Z,100172.91
2019-04-25T18:08:16.434Z,100174.17
2019-04-25T18:10:46.688Z,100168.03
2019-04-25T18:13:15.887Z,100167.60
2019-04-25T18:16:03.154Z,100164.42
2019-04-25T18:18:40.139Z,100171.91
2019-04-25T18:21:14.046Z,100163.97
2019-04-25T18:23:54.025Z,100159.63
2019-04-25T18:26:30.937Z,100162.37
2019-04-25T18:29:03.783Z,100160.89
2019-04-25T18:31:33.157Z,100160.03
2019-04-25T18:34:05.157Z,100164.25
2019-04-25T18:36:38.811Z,100159.48
2019-04-25T18:39:21.934Z,100161.91
2019-04-25T18:42:01.677Z,100163.70
2019-04-25T18:44:34.110Z,100161.04
2019-04-25T18:47:04.514Z,100165.26
2019-04-25T18:49:33.900Z,100170.59
2019-04-25T18:52:05.192Z,100171.64
2019-04-25T18:54:46.088Z,100173.08
2019-04-25T18:57:17.097Z,100173.91
2019-04-25T18:59:48.499Z,100177.14
2019-04-25T19:02:38.531Z,100175.44
2019-04-25T19:05:18.728Z,100175.44
2019-04-25T19:07:48.091Z,100165.08
2019-04-25T19:10:19.654Z,100172.87
2019-04-25T19:12:49.280Z,100179.30
2019-04-25T19:15:20.467Z,100174.12
2019-04-25T19:17:50.669Z,100178.30
2019-04-25T19:20:20.123Z,100167.61
2019-04-25T19:22:50.017Z,100162.62
2019-04-25T19:25:19.687Z,100162.06
2019-04-25T19:27:49.313Z,100157.89
2019-04-25T19:30:19.578Z,100158.38
2019-04-25T19:32:49.249Z,100153.70
2019-04-25T19:35:19.125Z,100160.45
2019-04-25T19:37:49.343Z,100166.20
2019-04-25T19:40:20.373Z,100169.41
2019-04-25T19:43:00.663Z,100165.90
2019-04-25T19:45:30.039Z,100175.57
2019-04-25T19:48:00.522Z,100165.92
2019-04-25T19:50:30.448Z,100170.08
2019-04-25T19:53:00.098Z,100160.63
2019-04-25T19:55:30.677Z,100160.63
2019-04-25T19:58:00.041Z,100161.09
2019-04-25T20:00:32.140Z,100154.34
2019-04-25T20:03:03.802Z,100141.25
2019-04-25T20:05:53.518Z,100141.25
2019-04-25T20:08:32.312Z,100134.84
2019-04-25T20:11:05.499Z,100137.41
2019-04-25T20:13:35.207Z,100135.34
2019-04-25T20:16:04.943Z,100143.00
2019-04-25T20:18:36.850Z,100131.84
2019-04-25T20:21:06.238Z,100136.89
2019-04-25T20:23:35.704Z,100143.13
2019-04-25T20:26:05.074Z,100142.88
2019-04-25T20:28:34.721Z,100138.87
2019-04-25T20:31:05.975Z,100147.78
2019-04-25T20:33:36.682Z,100144.71
2019-04-25T20:36:17.598Z,100148.28
2019-04-25T20:38:40.180Z,100139.25
2019-04-25T20:41:11.281Z,100144.78
2019-04-25T20:43:40.718Z,100143.65
2019-04-25T20:46:12.412Z,100146.95
2019-04-25T20:48:43.826Z,100168.67
2019-04-25T20:51:14.758Z,100211.17
2019-04-25T20:53:44.134Z,100214.68
2019-04-25T20:56:13.829Z,100232.59
2019-04-25T20:58:43.173Z,100255.25
2019-04-25T21:01:14.478Z,100256.41
2019-04-25T21:03:43.926Z,100256.41
2019-04-25T21:06:17.865Z,100282.95
2019-04-25T21:08:47.235Z,100282.95
2019-04-25T21:11:16.963Z,100292.40
2019-04-25T21:14:03.674Z,100298.30
2019-04-25T21:16:50.395Z,100307.41
2019-04-25T21:19:36.831Z,100305.22
2019-04-25T21:22:06.330Z,100310.01
2019-04-25T21:24:35.962Z,100328.58
2019-04-25T21:27:05.323Z,100324.65
2019-04-25T21:29:35.444Z,100334.38
2019-04-25T21:32:05.277Z,100340.32
2019-04-25T21:34:36.248Z,100340.32
2019-04-25T21:37:09.654Z,100345.92
2019-04-25T21:39:41.342Z,100355.61
2019-04-25T21:42:31.562Z,100353.38
2019-04-25T21:45:01.342Z,100355.27
2019-04-25T21:47:31.060Z,100364.47
2019-04-25T21:50:01.350Z,100373.30
2019-04-25T21:52:33.900Z,100374.14
2019-04-25T21:55:04.127Z,100383.98
2019-04-25T21:57:35.195Z,100385.52
2019-04-25T22:00:11.519Z,100386.56
2019-04-25T22:02:44.638Z,100389.94
2019-04-25T22:05:16.197Z,100385.42
2019-04-25T22:07:47.292Z,100382.86
2019-04-25T22:10:18.852Z,100391.83
2019-04-25T22:12:48.215Z,100397.09
2019-04-25T22:15:18.179Z,100398.59
2019-04-25T22:17:47.537Z,100400.80
2019-04-25T22:20:18.729Z,100402.98
2019-04-25T22:22:48.438Z,100401.80
2019-04-25T22:25:19.538Z,100403.30
2019-04-25T22:27:49.544Z,100402.25
2019-04-25T22:30:19.968Z,100403.09
2019-04-25T22:32:58.146Z,100411.20
2019-04-25T22:35:35.905Z,100414.09
2019-04-25T22:38:06.367Z,100418.30
2019-04-25T22:40:39.010Z,100418.99
2019-04-25T22:43:10.292Z,100422.02
2019-04-25T22:45:40.795Z,100418.78
2019-04-25T22:48:10.935Z,100424.56
2019-04-25T22:50:42.156Z,100415.54
2019-04-25T22:53:21.575Z,100403.66
2019-04-25T22:55:44.293Z,100397.70
2019-04-25T22:58:13.666Z,100399.63
2019-04-25T23:00:44.642Z,100405.24
2019-04-25T23:03:19.924Z,100407.83
2019-04-25T23:05:55.830Z,100406.89
2019-04-25T23:08:25.748Z,100406.89
2019-04-25T23:10:57.628Z,100414.73
2019-04-25T23:13:27.077Z,100418.64
2019-04-25T23:15:57.715Z,100424.88
2019-04-25T23:18:27.253Z,100431.10
2019-04-25T23:20:57.535Z,100433.64
2019-04-25T23:23:27.304Z,100429.91
2019-04-25T23:26:19.605Z,100419.00
2019-04-25T23:28:49.550Z,100417.64
2019-04-25T23:31:32.876Z,100411.67
2019-04-25T23:34:02.550Z,100414.22
2019-04-25T23:36:32.407Z,100417.64
2019-04-25T23:39:01.814Z,100415.58
2019-04-25T23:41:33.364Z,100410.45
2019-04-25T23:44:14.806Z,100417.38
2019-04-25T23:46:44.569Z,100414.13
2019-04-25T23:49:14.814Z,100409.70
2019-04-25T23:51:45.359Z,100411.06
2019-04-25T23:54:15.306Z,100409.75
2019-04-25T23:56:44.735Z,100418.08
2019-04-25T23:59:14.319Z,100428.59
